sensor_id;sensor_type;location;lat;lon;timestamp;pressure;altitude;pressure_sealevel;temperature;humidity
69574;BME280;62840;52.366;5.980;2022-09-17T00:01:14;101137.16;;;11.85;73.69
69574;BME280;62840;52.366;5.980;2022-09-17T00:03:42;101135.50;;;11.84;73.49
69574;BME280;62840;52.366;5.980;2022-09-17T00:06:15;101133.78;;;11.83;73.98
69574;BME280;62840;52.366;5.980;2022-09-17T00:08:45;101134.78;;;11.82;73.82
69574;BME280;62840;52.366;5.980;2022-09-17T00:11:19;101137.44;;;11.82;73.82
69574;BME280;62840;52.366;5.980;2022-09-17T00:13:48;101141.78;;;11.83;73.97
69574;BME280;62840;52.366;5.980;2022-09-17T00:16:26;101146.28;;;11.83;73.81
69574;BME280;62840;52.366;5.980;2022-09-17T00:18:53;101148.13;;;11.82;73.82
69574;BME280;62840;52.366;5.980;2022-09-17T00:21:23;101145.47;;;11.82;73.91
69574;BME280;62840;52.366;5.980;2022-09-17T00:23:58;101141.09;;;11.81;73.98
69574;BME280;62840;52.366;5.980;2022-09-17T00:26:26;101146.44;;;11.81;73.81
69574;BME280;62840;52.366;5.980;2022-09-17T00:28:54;101145.47;;;11.82;73.91
69574;BME280;62840;52.366;5.980;2022-09-17T00:31:22;101152.63;;;11.82;73.53
69574;BME280;62840;52.366;5.980;2022-09-17T00:33:51;101144.72;;;11.80;73.70
69574;BME280;62840;52.366;5.980;2022-09-17T00:36:22;101139.38;;;11.80;73.70
69574;BME280;62840;52.366;5.980;2022-09-17T00:38:48;101144.72;;;11.80;73.79
69574;BME280;62840;52.366;5.980;2022-09-17T00:41:18;101147.53;;;11.79;73.75
69574;BME280;62840;52.366;5.980;2022-09-17T00:43:46;101140.50;;;11.78;73.69
69574;BME280;62840;52.366;5.980;2022-09-17T00:46:23;101152.28;;;11.75;73.42
69574;BME280;62840;52.366;5.980;2022-09-17T00:48:54;101144.50;;;11.72;73.65
69574;BME280;62840;52.366;5.980;2022-09-17T00:51:30;101149.16;;;11.70;73.42
69574;BME280;62840;52.366;5.980;2022-09-17T00:54:01;101151.09;;;11.68;73.80
69574;BME280;62840;52.366;5.980;2022-09-17T00:56:33;101160.34;;;11.64;73.63
69574;BME280;62840;52.366;5.980;2022-09-17T00:59:02;101160.56;;;11.61;73.83
69574;BME280;62840;52.366;5.980;2022-09-17T01:01:29;101162.56;;;11.59;73.66
69574;BME280;62840;52.366;5.980;2022-09-17T01:03:55;101158.28;;;11.56;73.86
69574;BME280;62840;52.366;5.980;2022-09-17T01:06:28;101163.78;;;11.55;73.73
69574;BME280;62840;52.366;5.980;2022-09-17T01:09:08;101165.00;;;11.50;73.75
69574;BME280;62840;52.366;5.980;2022-09-17T01:11:58;101158.19;;;11.46;73.64
69574;BME280;62840;52.366;5.980;2022-09-17T01:17:32;101153.13;;;11.43;73.62
69574;BME280;62840;52.366;5.980;2022-09-17T01:20:22;101154.78;;;11.44;73.70
69574;BME280;62840;52.366;5.980;2022-09-17T01:23:45;101160.41;;;11.41;73.42
69574;BME280;62840;52.366;5.980;2022-09-17T01:26:54;101169.50;;;11.39;73.65
69574;BME280;62840;52.366;5.980;2022-09-17T01:29:59;101174.97;;;11.37;73.57
69574;BME280;62840;52.366;5.980;2022-09-17T01:32:47;101171.56;;;11.35;73.66
69574;BME280;62840;52.366;5.980;2022-09-17T01:35:24;101178.00;;;11.33;73.58
69574;BME280;62840;52.366;5.980;2022-09-17T01:38:08;101184.44;;;11.30;73.56
69574;BME280;62840;52.366;5.980;2022-09-17T01:40:46;101197.06;;;11.28;73.57
69574;BME280;62840;52.366;5.980;2022-09-17T01:43:21;101201.69;;;11.26;73.71
69574;BME280;62840;52.366;5.980;2022-09-17T01:45:56;101193.66;;;11.26;73.76
69574;BME280;62840;52.366;5.980;2022-09-17T01:48:38;101183.00;;;11.26;73.78
69574;BME280;62840;52.366;5.980;2022-09-17T01:51:10;101192.69;;;11.27;73.83
69574;BME280;62840;52.366;5.980;2022-09-17T01:53:45;101178.50;;;11.26;73.89
69574;BME280;62840;52.366;5.980;2022-09-17T01:56:19;101182.16;;;11.25;73.87
69574;BME280;62840;52.366;5.980;2022-09-17T01:58:52;101180.22;;;11.27;73.97
69574;BME280;62840;52.366;5.980;2022-09-17T02:01:26;101187.13;;;11.30;73.82
69574;BME280;62840;52.366;5.980;2022-09-17T02:04:06;101181.66;;;11.32;73.84
69574;BME280;62840;52.366;5.980;2022-09-17T02:06:44;101186.88;;;11.33;73.78
69574;BME280;62840;52.366;5.980;2022-09-17T02:09:22;101186.75;;;11.35;73.78
69574;BME280;62840;52.366;5.980;2022-09-17T02:11:56;101196.59;;;11.34;73.69
69574;BME280;62840;52.366;5.980;2022-09-17T02:14:28;101198.53;;;11.32;73.59
69574;BME280;62840;52.366;5.980;2022-09-17T02:17:05;101199.47;;;11.31;73.68
69574;BME280;62840;52.366;5.980;2022-09-17T02:19:43;101203.25;;;11.28;73.81
69574;BME280;62840;52.366;5.980;2022-09-17T02:22:15;101195.34;;;11.27;73.67
69574;BME280;62840;52.366;5.980;2022-09-17T02:24:53;101197.06;;;11.28;73.75
69574;BME280;62840;52.366;5.980;2022-09-17T02:27:36;101204.09;;;11.29;73.88
69574;BME280;62840;52.366;5.980;2022-09-17T02:30:09;101207.50;;;11.31;73.99
69574;BME280;62840;52.366;5.980;2022-09-17T02:32:36;101214.28;;;11.35;74.06
69574;BME280;62840;52.366;5.980;2022-09-17T02:35:10;101210.66;;;11.36;74.20
69574;BME280;62840;52.366;5.980;2022-09-17T02:37:42;101205.34;;;11.36;73.93
69574;BME280;62840;52.366;5.980;2022-09-17T02:40:09;101207.13;;;11.36;73.93
69574;BME280;62840;52.366;5.980;2022-09-17T02:43:14;101208.97;;;11.35;74.09
69574;BME280;62840;52.366;5.980;2022-09-17T02:45:59;101202.88;;;11.33;73.83
69574;BME280;62840;52.366;5.980;2022-09-17T02:48:49;101194.16;;;11.31;74.04
69574;BME280;62840;52.366;5.980;2022-09-17T02:51:34;101196.81;;;11.31;73.85
69574;BME280;62840;52.366;5.980;2022-09-17T02:54:16;101202.03;;;11.33;74.21
69574;BME280;62840;52.366;5.980;2022-09-17T02:56:57;101209.22;;;11.32;73.79
69574;BME280;62840;52.366;5.980;2022-09-17T02:59:36;101198.75;;;11.29;74.01
69574;BME280;62840;52.366;5.980;2022-09-17T03:02:17;101203.38;;;11.27;73.77
69574;BME280;62840;52.366;5.980;2022-09-17T03:04:50;101208.00;;;11.25;74.00
69574;BME280;62840;52.366;5.980;2022-09-17T03:07:21;101207.13;;;11.24;74.01
69574;BME280;62840;52.366;5.980;2022-09-17T03:09:48;101197.31;;;11.25;73.92
69574;BME280;62840;52.366;5.980;2022-09-17T03:12:14;101199.28;;;11.23;73.75
69574;BME280;62840;52.366;5.980;2022-09-17T03:14:41;101195.00;;;11.20;73.84
69574;BME280;62840;52.366;5.980;2022-09-17T03:17:07;101207.66;;;11.18;73.70
69574;BME280;62840;52.366;5.980;2022-09-17T03:19:33;101217.72;;;11.15;73.71
69574;BME280;62840;52.366;5.980;2022-09-17T03:21:58;101225.97;;;11.12;73.77
69574;BME280;62840;52.366;5.980;2022-09-17T03:24:27;101218.19;;;11.08;73.82
69574;BME280;62840;52.366;5.980;2022-09-17T03:26:53;101212.00;;;11.08;74.05
69574;BME280;62840;52.366;5.980;2022-09-17T03:29:18;101221.00;;;11.07;73.97
69574;BME280;62840;52.366;5.980;2022-09-17T03:31:44;101215.50;;;11.08;73.90
69574;BME280;62840;52.366;5.980;2022-09-17T03:34:10;101214.66;;;11.08;74.05
69574;BME280;62840;52.366;5.980;2022-09-17T03:36:36;101207.50;;;11.08;74.19
69574;BME280;62840;52.366;5.980;2022-09-17T03:39:02;101218.81;;;11.12;74.03
69574;BME280;62840;52.366;5.980;2022-09-17T03:41:31;101221.34;;;11.14;74.22
69574;BME280;62840;52.366;5.980;2022-09-17T03:43:56;101217.44;;;11.18;74.16
69574;BME280;62840;52.366;5.980;2022-09-17T03:46:22;101214.66;;;11.19;73.93
69574;BME280;62840;52.366;5.980;2022-09-17T03:48:48;101220.84;;;11.20;73.83
69574;BME280;62840;52.366;5.980;2022-09-17T03:51:14;101221.69;;;11.20;73.78
69574;BME280;62840;52.366;5.980;2022-09-17T03:53:40;101230.56;;;11.21;73.76
69574;BME280;62840;52.366;5.980;2022-09-17T03:56:06;101226.91;;;11.22;73.84
69574;BME280;62840;52.366;5.980;2022-09-17T03:58:35;101229.69;;;11.20;73.76
69574;BME280;62840;52.366;5.980;2022-09-17T04:01:01;101221.00;;;11.18;73.98
69574;BME280;62840;52.366;5.980;2022-09-17T04:03:27;101210.44;;;11.17;73.72
69574;BME280;62840;52.366;5.980;2022-09-17T04:05:53;101207.03;;;11.15;73.82
69574;BME280;62840;52.366;5.980;2022-09-17T04:08:20;101188.44;;;11.13;73.88
69574;BME280;62840;52.366;5.980;2022-09-17T04:10:47;101199.28;;;11.12;73.87
69574;BME280;62840;52.366;5.980;2022-09-17T04:13:14;101206.41;;;11.11;74.04
69574;BME280;62840;52.366;5.980;2022-09-17T04:15:43;101223.31;;;11.12;73.92
69574;BME280;62840;52.366;5.980;2022-09-17T04:18:10;101233.00;;;11.13;73.91
69574;BME280;62840;52.366;5.980;2022-09-17T04:20:37;101233.97;;;11.12;74.08
69574;BME280;62840;52.366;5.980;2022-09-17T04:23:04;101223.53;;;11.08;74.00
69574;BME280;62840;52.366;5.980;2022-09-17T04:25:30;101223.53;;;11.08;74.14
69574;BME280;62840;52.366;5.980;2022-09-17T04:27:56;101214.78;;;11.06;73.98
69574;BME280;62840;52.366;5.980;2022-09-17T04:30:21;101205.81;;;11.07;73.95
69574;BME280;62840;52.366;5.980;2022-09-17T04:32:50;101216.25;;;11.11;73.96
69574;BME280;62840;52.366;5.980;2022-09-17T04:35:16;101226.69;;;11.14;73.90
69574;BME280;62840;52.366;5.980;2022-09-17T04:37:42;101223.03;;;11.15;74.00
69574;BME280;62840;52.366;5.980;2022-09-17T04:40:09;101223.88;;;11.15;73.85
69574;BME280;62840;52.366;5.980;2022-09-17T04:42:35;101227.53;;;11.14;73.81
69574;BME280;62840;52.366;5.980;2022-09-17T04:45:00;101232.25;;;11.11;73.66
69574;BME280;62840;52.366;5.980;2022-09-17T04:47:26;101233.25;;;11.10;73.88
69574;BME280;62840;52.366;5.980;2022-09-17T04:49:55;101223.53;;;11.08;73.79
69574;BME280;62840;52.366;5.980;2022-09-17T04:52:20;101226.34;;;11.07;73.96
69574;BME280;62840;52.366;5.980;2022-09-17T04:54:46;101225.47;;;11.06;74.05
69574;BME280;62840;52.366;5.980;2022-09-17T04:57:12;101225.47;;;11.06;74.09
69574;BME280;62840;52.366;5.980;2022-09-17T04:59:38;101221.84;;;11.07;73.96
69574;BME280;62840;52.366;5.980;2022-09-17T05:02:04;101221.69;;;11.09;73.88
69574;BME280;62840;52.366;5.980;2022-09-17T05:04:30;101225.25;;;11.10;73.82
69574;BME280;62840;52.366;5.980;2022-09-17T05:06:58;101227.03;;;11.09;73.68
69574;BME280;62840;52.366;5.980;2022-09-17T05:09:24;101229.13;;;11.05;73.86
69574;BME280;62840;52.366;5.980;2022-09-17T05:11:49;101231.16;;;11.02;73.78
69574;BME280;62840;52.366;5.980;2022-09-17T05:14:15;101225.22;;;10.98;73.66
69574;BME280;62840;52.366;5.980;2022-09-17T05:16:41;101222.78;;;10.95;73.74
69574;BME280;62840;52.366;5.980;2022-09-17T05:19:07;101224.72;;;10.93;73.76
69574;BME280;62840;52.366;5.980;2022-09-17T05:21:33;101227.38;;;10.93;73.88
69574;BME280;62840;52.366;5.980;2022-09-17T05:24:01;101233.72;;;10.92;73.67
69574;BME280;62840;52.366;5.980;2022-09-17T05:26:27;101233.97;;;10.89;73.53
69574;BME280;62840;52.366;5.980;2022-09-17T05:28:53;101246.53;;;10.87;73.80
69574;BME280;62840;52.366;5.980;2022-09-17T05:31:19;101251.88;;;10.87;73.91
69574;BME280;62840;52.366;5.980;2022-09-17T05:33:45;101248.47;;;10.85;74.10
69574;BME280;62840;52.366;5.980;2022-09-17T05:36:11;101237.78;;;10.85;73.76
69574;BME280;62840;52.366;5.980;2022-09-17T05:38:36;101240.56;;;10.83;73.87
69574;BME280;62840;52.366;5.980;2022-09-17T05:41:06;101239.72;;;10.83;73.97
69574;BME280;62840;52.366;5.980;2022-09-17T05:43:32;101252.09;;;10.84;73.80
69574;BME280;62840;52.366;5.980;2022-09-17T05:46:00;101257.41;;;10.84;73.86
69574;BME280;62840;52.366;5.980;2022-09-17T05:48:26;101261.06;;;10.83;73.96
69574;BME280;62840;52.366;5.980;2022-09-17T05:50:53;101261.06;;;10.83;74.01
69574;BME280;62840;52.366;5.980;2022-09-17T05:53:19;101266.41;;;10.83;74.12
69574;BME280;62840;52.366;5.980;2022-09-17T05:55:45;101262.03;;;10.82;73.98
69574;BME280;62840;52.366;5.980;2022-09-17T05:58:15;101265.56;;;10.82;73.98
69574;BME280;62840;52.366;5.980;2022-09-17T06:00:43;101251.50;;;10.80;74.08
69574;BME280;62840;52.366;5.980;2022-09-17T06:03:10;101256.00;;;10.80;73.94
69574;BME280;62840;52.366;5.980;2022-09-17T06:05:38;101257.66;;;10.81;73.76
69574;BME280;62840;52.366;5.980;2022-09-17T06:08:05;101267.50;;;10.80;73.94
69574;BME280;62840;52.366;5.980;2022-09-17T06:10:31;101268.34;;;10.81;73.95
69574;BME280;62840;52.366;5.980;2022-09-17T06:13:00;101262.28;;;10.79;73.94
69574;BME280;62840;52.366;5.980;2022-09-17T06:15:29;101278.16;;;10.80;73.94
69574;BME280;62840;52.366;5.980;2022-09-17T06:17:55;101280.00;;;10.80;74.02
69574;BME280;62840;52.366;5.980;2022-09-17T06:20:21;101279.25;;;10.78;73.91
69574;BME280;62840;52.366;5.980;2022-09-17T06:22:47;101277.34;;;10.80;74.08
69574;BME280;62840;52.366;5.980;2022-09-17T06:25:15;101288.72;;;10.82;73.96
69574;BME280;62840;52.366;5.980;2022-09-17T06:27:41;101287.75;;;10.83;74.02
69574;BME280;62840;52.366;5.980;2022-09-17T06:30:07;101296.28;;;10.88;74.25
69574;BME280;62840;52.366;5.980;2022-09-17T06:32:39;101297.75;;;10.92;74.36
69574;BME280;62840;52.366;5.980;2022-09-17T06:35:09;101293.88;;;10.96;74.27
69574;BME280;62840;52.366;5.980;2022-09-17T06:37:35;101300.69;;;11.00;74.46
69574;BME280;62840;52.366;5.980;2022-09-17T06:40:01;101305.78;;;11.03;74.37
69574;BME280;62840;52.366;5.980;2022-09-17T06:42:29;101293.16;;;11.05;74.22
69574;BME280;62840;52.366;5.980;2022-09-17T06:44:55;101288.56;;;11.07;74.32
69574;BME280;62840;52.366;5.980;2022-09-17T06:47:23;101292.91;;;11.08;74.28
69574;BME280;62840;52.366;5.980;2022-09-17T06:49:52;101289.31;;;11.10;74.49
69574;BME280;62840;52.366;5.980;2022-09-17T06:52:17;101286.75;;;11.08;74.31
69574;BME280;62840;52.366;5.980;2022-09-17T06:54:43;101294.63;;;11.10;74.40
69574;BME280;62840;52.366;5.980;2022-09-17T06:57:09;101298.03;;;11.12;74.29
69574;BME280;62840;52.366;5.980;2022-09-17T06:59:35;101298.88;;;11.12;74.31
69574;BME280;62840;52.366;5.980;2022-09-17T07:02:01;101300.47;;;11.15;74.29
69574;BME280;62840;52.366;5.980;2022-09-17T07:04:31;101295.84;;;11.17;74.44
69574;BME280;62840;52.366;5.980;2022-09-17T07:07:07;101297.53;;;11.18;74.51
69574;BME280;62840;52.366;5.980;2022-09-17T07:09:36;101291.09;;;11.20;74.31
69574;BME280;62840;52.366;5.980;2022-09-17T07:12:06;101300.72;;;11.23;74.37
69574;BME280;62840;52.366;5.980;2022-09-17T07:14:32;101295.97;;;11.26;74.52
69574;BME280;62840;52.366;5.980;2022-09-17T07:16:58;101296.59;;;11.30;74.16
69574;BME280;62840;52.366;5.980;2022-09-17T07:19:26;101289.31;;;11.32;74.40
69574;BME280;62840;52.366;5.980;2022-09-17T07:21:52;101297.06;;;11.35;74.45
69574;BME280;62840;52.366;5.980;2022-09-17T07:24:23;101289.81;;;11.37;74.49
69574;BME280;62840;52.366;5.980;2022-09-17T07:26:48;101290.41;;;11.41;74.65
69574;BME280;62840;52.366;5.980;2022-09-17T07:29:14;101292.84;;;11.44;74.69
69574;BME280;62840;52.366;5.980;2022-09-17T07:31:40;101295.97;;;11.49;74.52
69574;BME280;62840;52.366;5.980;2022-09-17T07:34:06;101295.38;;;11.57;74.76
69574;BME280;62840;52.366;5.980;2022-09-17T07:36:32;101305.81;;;11.60;74.61
69574;BME280;62840;52.366;5.980;2022-09-17T07:38:58;101304.63;;;11.64;74.73
69574;BME280;62840;52.366;5.980;2022-09-17T07:41:29;101300.72;;;11.68;74.62
69574;BME280;62840;52.366;5.980;2022-09-17T07:43:57;101304.13;;;11.70;74.85
69574;BME280;62840;52.366;5.980;2022-09-17T07:46:23;101302.16;;;11.72;74.47
69574;BME280;62840;52.366;5.980;2022-09-17T07:48:49;101309.22;;;11.73;74.61
69574;BME280;62840;52.366;5.980;2022-09-17T07:51:17;101302.88;;;11.74;74.68
69574;BME280;62840;52.366;5.980;2022-09-17T07:53:45;101300.22;;;11.74;74.58
69574;BME280;62840;52.366;5.980;2022-09-17T07:56:11;101310.91;;;11.74;74.52
69574;BME280;62840;52.366;5.980;2022-09-17T07:58:39;101307.28;;;11.75;74.63
69574;BME280;62840;52.366;5.980;2022-09-17T08:01:09;101301.66;;;11.78;74.47
69574;BME280;62840;52.366;5.980;2022-09-17T08:03:37;101299.72;;;11.80;74.75
69574;BME280;62840;52.366;5.980;2022-09-17T08:06:06;101300.56;;;11.81;74.87
69574;BME280;62840;52.366;5.980;2022-09-17T08:08:34;101303.84;;;11.84;74.91
69574;BME280;62840;52.366;5.980;2022-09-17T08:11:05;101295.59;;;11.87;74.87
69574;BME280;62840;52.366;5.980;2022-09-17T08:13:35;101305.06;;;11.91;75.08
69574;BME280;62840;52.366;5.980;2022-09-17T08:16:05;101303.56;;;11.99;75.04
69574;BME280;62840;52.366;5.980;2022-09-17T08:18:33;101295.06;;;12.05;75.12
69574;BME280;62840;52.366;5.980;2022-09-17T08:21:01;101295.53;;;12.10;75.25
69574;BME280;62840;52.366;5.980;2022-09-17T08:23:34;101297.81;;;12.15;74.95
69574;BME280;62840;52.366;5.980;2022-09-17T08:26:02;101296.75;;;12.17;75.01
69574;BME280;62840;52.366;5.980;2022-09-17T08:28:30;101298.16;;;12.21;74.72
69574;BME280;62840;52.366;5.980;2022-09-17T08:31:00;101312.03;;;12.26;75.03
69574;BME280;62840;52.366;5.980;2022-09-17T08:33:30;101325.06;;;12.31;75.26
69574;BME280;62840;52.366;5.980;2022-09-17T08:36:00;101332.94;;;12.32;74.82
69574;BME280;62840;52.366;5.980;2022-09-17T08:38:30;101334.88;;;12.30;74.61
69574;BME280;62840;52.366;5.980;2022-09-17T08:41:05;101326.38;;;12.25;74.38
69574;BME280;62840;52.366;5.980;2022-09-17T08:43:48;101323.22;;;12.20;74.35
69574;BME280;62840;52.366;5.980;2022-09-17T08:46:26;101324.44;;;12.16;74.34
69574;BME280;62840;52.366;5.980;2022-09-17T08:49:06;101320.47;;;12.10;74.24
69574;BME280;62840;52.366;5.980;2022-09-17T08:51:55;101324.22;;;12.08;74.34
69574;BME280;62840;52.366;5.980;2022-09-17T08:54:36;101325.19;;;12.07;74.46
69574;BME280;62840;52.366;5.980;2022-09-17T08:57:17;101328.59;;;12.09;74.60
69574;BME280;62840;52.366;5.980;2022-09-17T08:59:56;101330.16;;;12.11;74.75
69574;BME280;62840;52.366;5.980;2022-09-17T09:02:46;101324.56;;;12.15;74.86
69574;BME280;62840;52.366;5.980;2022-09-17T09:05:30;101328.84;;;12.17;74.79
69574;BME280;62840;52.366;5.980;2022-09-17T09:08:13;101324.69;;;12.24;74.94
69574;BME280;62840;52.366;5.980;2022-09-17T09:10:52;101330.53;;;12.29;75.26
69574;BME280;62840;52.366;5.980;2022-09-17T09:13:23;101330.03;;;12.36;75.17
69574;BME280;62840;52.366;5.980;2022-09-17T09:15:55;101332.44;;;12.39;75.31
69574;BME280;62840;52.366;5.980;2022-09-17T09:18:32;101332.16;;;12.42;75.06
69574;BME280;62840;52.366;5.980;2022-09-17T09:21:15;101337.28;;;12.45;75.37
69574;BME280;62840;52.366;5.980;2022-09-17T09:23:52;101339.59;;;12.49;75.14
69574;BME280;62840;52.366;5.980;2022-09-17T09:26:21;101338.47;;;12.52;74.99
69574;BME280;62840;52.366;5.980;2022-09-17T09:29:03;101343.56;;;12.55;75.24
69574;BME280;62840;52.366;5.980;2022-09-17T09:31:59;101341.59;;;12.57;75.11
69574;BME280;62840;52.366;5.980;2022-09-17T09:34:44;101332.84;;;12.55;74.70
69574;BME280;62840;52.366;5.980;2022-09-17T09:37:15;101334.81;;;12.53;74.38
69574;BME280;62840;52.366;5.980;2022-09-17T09:39:47;101329.47;;;12.53;74.53
69574;BME280;62840;52.366;5.980;2022-09-17T09:42:23;101331.44;;;12.51;74.56
69574;BME280;62840;52.366;5.980;2022-09-17T09:44:56;101329.72;;;12.50;73.84
69574;BME280;62840;52.366;5.980;2022-09-17T09:47:42;101337.88;;;12.48;74.14
69574;BME280;62840;52.366;5.980;2022-09-17T09:50:26;101327.53;;;12.44;74.25
69574;BME280;62840;52.366;5.980;2022-09-17T09:53:07;101331.94;;;12.45;74.63
69574;BME280;62840;52.366;5.980;2022-09-17T09:55:57;101340.69;;;12.47;74.54
69574;BME280;62840;52.366;5.980;2022-09-17T09:58:33;101331.44;;;12.51;74.46
69574;BME280;62840;52.366;5.980;2022-09-17T10:01:10;101326.41;;;12.58;74.39
69574;BME280;62840;52.366;5.980;2022-09-17T10:03:42;101339.66;;;12.59;74.55
69574;BME280;62840;52.366;5.980;2022-09-17T10:06:14;101330.66;;;12.60;74.18
69574;BME280;62840;52.366;5.980;2022-09-17T10:11:35;101332.63;;;12.58;73.97
69574;BME280;62840;52.366;5.980;2022-09-17T10:14:14;101329.22;;;12.56;73.62
69574;BME280;62840;52.366;5.980;2022-09-17T10:16:49;101331.06;;;12.56;73.69
69574;BME280;62840;52.366;5.980;2022-09-17T10:19:18;101325.56;;;12.57;73.46
69574;BME280;62840;52.366;5.980;2022-09-17T10:21:48;101321.66;;;12.61;73.58
69574;BME280;62840;52.366;5.980;2022-09-17T10:24:23;101327.72;;;12.63;73.60
69574;BME280;62840;52.366;5.980;2022-09-17T10:26:59;101309.59;;;12.67;73.73
69574;BME280;62840;52.366;5.980;2022-09-17T10:29:27;101315.28;;;12.73;73.75
69574;BME280;62840;52.366;5.980;2022-09-17T10:31:55;101298.97;;;12.77;73.18
69574;BME280;62840;52.366;5.980;2022-09-17T10:34:24;101302.81;;;12.84;73.34
69574;BME280;62840;52.366;5.980;2022-09-17T10:36:57;101303.00;;;12.92;73.20
69574;BME280;62840;52.366;5.980;2022-09-17T10:39:31;101308.28;;;13.03;72.99
69574;BME280;62840;52.366;5.980;2022-09-17T10:42:02;101326.50;;;13.09;72.82
69574;BME280;62840;52.366;5.980;2022-09-17T10:44:33;101343.16;;;13.13;73.26
69574;BME280;62840;52.366;5.980;2022-09-17T10:47:05;101332.72;;;13.10;73.16
69574;BME280;62840;52.366;5.980;2022-09-17T10:49:46;101321.09;;;13.00;72.96
69574;BME280;62840;52.366;5.980;2022-09-17T10:52:24;101311.03;;;12.92;73.12
69574;BME280;62840;52.366;5.980;2022-09-17T10:55:03;101309.16;;;12.83;73.25
69574;BME280;62840;52.366;5.980;2022-09-17T10:58:08;101304.03;;;12.80;73.47
69574;BME280;62840;52.366;5.980;2022-09-17T11:00:53;101297.00;;;12.79;73.95
69574;BME280;62840;52.366;5.980;2022-09-17T11:04:09;101295.03;;;12.81;74.29
69574;BME280;62840;52.366;5.980;2022-09-17T11:06:56;101290.84;;;12.88;73.90
69574;BME280;62840;52.366;5.980;2022-09-17T11:09:52;101277.19;;;12.91;73.84
69574;BME280;62840;52.366;5.980;2022-09-17T11:12:39;101286.41;;;12.98;74.44
69574;BME280;62840;52.366;5.980;2022-09-17T11:15:28;101273.94;;;13.08;74.65
69574;BME280;62840;52.366;5.980;2022-09-17T11:18:31;101280.88;;;13.21;74.74
69574;BME280;62840;52.366;5.980;2022-09-17T11:27:48;101307.66;;;13.21;73.68
69574;BME280;62840;52.366;5.980;2022-09-17T11:30:29;101302.03;;;13.14;73.53
69574;BME280;62840;52.366;5.980;2022-09-17T11:33:26;101288.31;;;13.07;73.29
69574;BME280;62840;52.366;5.980;2022-09-17T11:36:18;101292.03;;;12.95;73.33
69574;BME280;62840;52.366;5.980;2022-09-17T11:38:50;101281.59;;;12.92;73.78
69574;BME280;62840;52.366;5.980;2022-09-17T11:41:26;101286.94;;;12.92;73.77
69574;BME280;62840;52.366;5.980;2022-09-17T11:44:04;101285.84;;;12.94;73.68
69574;BME280;62840;52.366;5.980;2022-09-17T11:46:41;101284.72;;;12.97;74.11
69574;BME280;62840;52.366;5.980;2022-09-17T11:49:26;101289.78;;;13.00;73.94
69574;BME280;62840;52.366;5.980;2022-09-17T11:52:02;101286.59;;;13.06;74.20
69574;BME280;62840;52.366;5.980;2022-09-17T11:54:37;101302.88;;;13.14;74.68
69574;BME280;62840;52.366;5.980;2022-09-17T11:57:19;101301.75;;;13.17;74.07
69574;BME280;62840;52.366;5.980;2022-09-17T11:59:55;101310.19;;;13.12;73.21
69574;BME280;62840;52.366;5.980;2022-09-17T12:02:29;101305.06;;;13.09;73.42
69574;BME280;62840;52.366;5.980;2022-09-17T12:05:14;101313.25;;;13.08;73.55
69574;BME280;62840;52.366;5.980;2022-09-17T12:07:47;101311.81;;;13.04;72.90
69574;BME280;62840;52.366;5.980;2022-09-17T12:10:33;101307.56;;;13.01;72.90
69574;BME280;62840;52.366;5.980;2022-09-17T12:13:15;101300.50;;;13.00;73.26
69574;BME280;62840;52.366;5.980;2022-09-17T12:15:49;101302.47;;;12.98;73.57
69574;BME280;62840;52.366;5.980;2022-09-17T12:18:29;101305.13;;;12.98;73.57
69574;BME280;62840;52.366;5.980;2022-09-17T12:21:07;101312.34;;;12.98;73.43
69574;BME280;62840;52.366;5.980;2022-09-17T12:23:44;101295.16;;;13.00;73.28
69574;BME280;62840;52.366;5.980;2022-09-17T12:26:26;101296.19;;;13.09;73.33
69574;BME280;62840;52.366;5.980;2022-09-17T12:29:29;101289.47;;;13.14;73.27
69574;BME280;62840;52.366;5.980;2022-09-17T12:32:33;101303.50;;;13.28;72.95
69574;BME280;62840;52.366;5.980;2022-09-17T12:35:17;101301.69;;;13.38;72.56
69574;BME280;62840;52.366;5.980;2022-09-17T12:38:08;101309.94;;;13.46;72.08
69574;BME280;62840;52.366;5.980;2022-09-17T12:40:53;101314.28;;;13.47;71.60
69574;BME280;62840;52.366;5.980;2022-09-17T12:43:42;101305.81;;;13.42;71.30
69574;BME280;62840;52.366;5.980;2022-09-17T12:46:41;101310.03;;;13.35;70.97
69574;BME280;62840;52.366;5.980;2022-09-17T12:52:35;101299.00;;;13.28;70.72
69574;BME280;62840;52.366;5.980;2022-09-17T12:55:35;101292.50;;;13.31;70.53
69574;BME280;62840;52.366;5.980;2022-09-17T12:58:16;101296.75;;;13.33;70.53
69574;BME280;62840;52.366;5.980;2022-09-17T13:01:18;101291.25;;;13.35;70.61
69574;BME280;62840;52.366;5.980;2022-09-17T13:03:58;101295.63;;;13.36;70.88
69574;BME280;62840;52.366;5.980;2022-09-17T13:10:07;101278.59;;;13.37;71.04
69574;BME280;62840;52.366;5.980;2022-09-17T13:12:55;101280.69;;;13.43;70.50
69574;BME280;62840;52.366;5.980;2022-09-17T13:15:45;101270.88;;;13.53;70.51
69574;BME280;62840;52.366;5.980;2022-09-17T13:18:35;101286.91;;;13.65;70.76
69574;BME280;62840;52.366;5.980;2022-09-17T13:21:10;101303.16;;;13.73;69.61
69574;BME280;62840;52.366;5.980;2022-09-17T13:23:42;101306.56;;;13.75;69.42
69574;BME280;62840;52.366;5.980;2022-09-17T13:26:13;101298.03;;;13.70;69.00
69574;BME280;62840;52.366;5.980;2022-09-17T13:28:43;101305.66;;;13.65;69.27
69574;BME280;62840;52.366;5.980;2022-09-17T13:31:11;101314.09;;;13.60;69.38
69574;BME280;62840;52.366;5.980;2022-09-17T13:33:54;101310.13;;;13.54;69.38
69574;BME280;62840;52.366;5.980;2022-09-17T13:36:41;101321.63;;;13.45;68.74
69574;BME280;62840;52.366;5.980;2022-09-17T13:39:38;101310.25;;;13.32;69.44
69574;BME280;62840;52.366;5.980;2022-09-17T13:42:11;101301.34;;;13.22;69.76
69574;BME280;62840;52.366;5.980;2022-09-17T13:44:43;101303.59;;;13.16;70.13